Time;durP1;ratioP1;P1;durP2;ratioP2;P2;SDS_P1;SDS_P2;PMS_P1;PMS_P2;Temp;Humidity;BMP_temperature;BMP_pressure;BME280_temperature;BME280_humidity;BME280_pressure;Samples;Min_cycle;Max_cycle;Signal;HPM_P1;HPM_P2
2021/07/11 00:00:41;;;;;;;7.67;5.00;;;;;;;18.60;66.20;100373.08;126676;1089;114652;-81
2021/07/11 00:03:29;;;;;;;5.50;5.00;;;;;;;18.58;66.53;100365.25;126879;1090;101008;-81
2021/07/11 00:06:17;;;;;;;6.90;5.23;;;;;;;18.56;66.67;100369.78;126739;1090;114182;-81
2021/07/11 00:09:06;;;;;;;6.57;5.73;;;;;;;18.53;66.67;100364.70;126862;1089;103374;-81
2021/07/11 00:11:55;;;;;;;5.73;5.10;;;;;;;18.52;66.83;100370.08;126653;1089;113508;-81
2021/07/11 00:14:43;;;;;;;6.47;5.83;;;;;;;18.49;66.80;100373.77;126801;1090;101752;-81
2021/07/11 00:17:31;;;;;;;6.33;5.73;;;;;;;18.48;67.07;100382.61;126729;1089;113258;-81
2021/07/11 00:20:21;;;;;;;7.20;6.27;;;;;;;18.51;67.34;100373.67;126831;1090;102932;-81
2021/07/11 00:23:09;;;;;;;6.13;5.53;;;;;;;18.56;67.27;100374.22;126841;1090;102892;-81
2021/07/11 00:25:56;;;;;;;7.07;5.50;;;;;;;18.60;67.36;100386.28;126870;1090;114016;-81
2021/07/11 00:28:44;;;;;;;6.60;4.87;;;;;;;18.58;67.38;100383.73;126776;1090;103042;-81
2021/07/11 00:31:33;;;;;;;6.17;5.50;;;;;;;18.56;67.51;100385.63;126803;1089;114380;-81
2021/07/11 00:34:21;;;;;;;6.55;5.85;;;;;;;18.51;67.40;100377.16;126983;1090;103063;-81
2021/07/11 00:37:09;;;;;;;7.73;6.67;;;;;;;18.47;67.68;100386.19;126907;1090;114367;-80
2021/07/11 00:39:57;;;;;;;6.93;5.90;;;;;;;18.46;67.93;100388.94;126900;1090;102847;-80
2021/07/11 00:42:46;;;;;;;6.90;5.20;;;;;;;18.43;67.94;100387.34;126725;1089;114457;-81
2021/07/11 00:45:35;;;;;;;6.23;5.53;;;;;;;18.40;67.88;100390.17;127012;1089;102773;-81
2021/07/11 00:48:23;;;;;;;9.20;6.43;;;;;;;18.41;67.98;100394.52;126780;1089;114164;-81
2021/07/11 00:51:11;;;;;;;6.83;6.13;;;;;;;18.45;68.04;100388.09;126849;1090;102276;-81
2021/07/11 00:54:03;;;;;;;6.70;6.00;;;;;;;18.42;67.82;100390.92;126713;1090;113458;-81
2021/07/11 00:56:51;;;;;;;6.13;5.53;;;;;;;18.38;67.78;100387.63;126862;1090;103529;-81
2021/07/11 00:59:40;;;;;;;7.53;6.03;;;;;;;18.40;67.81;100390.17;126914;1090;114271;-81
2021/07/11 01:02:40;;;;;;;6.97;6.03;;;;;;;18.43;68.05;100389.98;126849;1090;102850;-80
2021/07/11 01:05:29;;;;;;;7.30;6.60;;;;;;;18.50;68.11;100390.46;126978;1089;102845;-82
2021/07/11 01:08:41;;;;;;;8.93;6.43;;;;;;;18.52;67.91;100389.42;126732;1090;113875;-81
2021/07/11 01:11:41;;;;;;;7.25;6.40;;;;;;;18.47;67.61;100388.83;126868;1090;103147;-81
2021/07/11 01:14:30;;;;;;;7.13;5.87;;;;;;;18.42;68.02;100385.64;126691;1090;113982;-81
2021/07/11 01:17:25;;;;;;;7.23;6.10;;;;;;;18.37;67.86;100385.94;126883;1089;102659;-81
2021/07/11 01:20:41;;;;;;;10.57;6.70;;;;;;;18.33;68.08;100389.72;126749;1089;113337;-81
2021/07/11 01:24:05;;;;;;;6.77;6.07;;;;;;;18.30;68.11;100392.52;126824;1088;101092;-81
2021/07/11 01:26:55;;;;;;;6.20;5.60;;;;;;;18.27;68.24;100391.88;126926;1088;103161;-81
2021/07/11 01:29:46;;;;;;;6.77;6.07;;;;;;;18.26;68.23;100398.09;126824;1089;102970;-81
2021/07/11 01:32:36;;;;;;;6.55;5.80;;;;;;;18.31;68.48;100396.02;126749;1089;113034;-80
2021/07/11 01:35:25;;;;;;;7.50;6.25;;;;;;;18.37;68.45;100391.22;126946;1089;102921;-80
2021/07/11 01:38:15;;;;;;;8.10;6.63;;;;;;;18.36;68.12;100391.31;126716;1090;114647;-80
2021/07/11 01:41:05;;;;;;;6.87;6.17;;;;;;;18.33;68.47;100392.36;126693;1090;102879;-80
2021/07/11 01:43:54;;;;;;;8.70;5.93;;;;;;;18.33;68.43;100399.44;126710;1090;114575;-80
2021/07/11 01:46:45;;;;;;;13.67;6.40;;;;;;;18.36;68.45;100402.73;126810;1090;102855;-80
2021/07/11 01:49:35;;;;;;;8.00;6.00;;;;;;;18.36;68.31;100397.45;126768;1089;114441;-80
2021/07/11 01:52:25;;;;;;;9.00;6.70;;;;;;;18.30;68.35;100394.31;126839;1089;102936;-81
2021/07/11 01:55:14;;;;;;;7.37;6.20;;;;;;;18.23;68.37;100399.13;126711;1088;114280;-80
2021/07/11 01:58:03;;;;;;;6.40;5.27;;;;;;;18.16;68.60;100397.83;126827;1088;103323;-80
2021/07/11 02:00:54;;;;;;;7.90;6.10;;;;;;;18.10;68.66;100396.39;126727;1090;114539;-80
2021/07/11 02:03:42;;;;;;;7.53;6.47;;;;;;;18.07;68.70;100391.30;126890;1089;103049;-80
2021/07/11 02:06:30;;;;;;;7.40;6.60;;;;;;;18.05;68.81;100394.98;126757;1090;102871;-80
2021/07/11 02:09:27;;;;;;;7.03;6.33;;;;;;;18.02;69.09;100390.74;126767;1090;102853;-80
2021/07/11 02:12:22;;;;;;;6.90;6.30;;;;;;;18.01;69.12;100391.69;126742;1089;102982;-80
2021/07/11 02:15:12;;;;;;;8.50;6.37;;;;;;;18.05;69.26;100389.70;126778;1089;114492;-80
2021/07/11 02:18:01;;;;;;;8.33;6.20;;;;;;;18.10;69.24;100400.81;126687;1089;102991;-80
2021/07/11 02:21:08;;;;;;;10.37;7.23;;;;;;;18.11;69.17;100402.52;126725;1090;114327;-80
2021/07/11 02:23:59;;;;;;;7.93;6.40;;;;;;;18.07;69.28;100403.65;126908;1089;102882;-80
2021/07/11 02:26:49;;;;;;;9.07;6.50;;;;;;;18.10;69.49;100399.03;126679;1090;113082;-80
2021/07/11 02:29:44;;;;;;;9.03;7.70;;;;;;;18.16;69.42;100396.98;126924;1089;102936;-80
2021/07/11 02:32:32;;;;;;;7.53;6.83;;;;;;;18.13;69.33;100395.34;126745;1089;113266;-80
2021/07/11 02:35:37;;;;;;;7.83;7.13;;;;;;;18.03;69.04;100392.44;126908;1090;102899;-80
2021/07/11 02:38:32;;;;;;;9.40;7.33;;;;;;;17.97;69.34;100392.81;126825;1090;114304;-80
2021/07/11 02:41:25;;;;;;;9.03;7.50;;;;;;;17.94;69.51;100392.97;126891;1089;103462;-80
2021/07/11 02:44:15;;;;;;;9.10;7.40;;;;;;;17.91;69.58;100394.95;126692;1088;113258;-81
2021/07/11 02:47:16;;;;;;;8.60;7.50;;;;;;;17.91;69.57;100402.88;126927;1089;102885;-80
2021/07/11 02:50:11;;;;;;;9.57;7.80;;;;;;;17.91;69.86;100398.44;126844;1090;112999;-81
2021/07/11 02:53:02;;;;;;;9.10;8.07;;;;;;;17.91;69.76;100401.08;126910;1090;102839;-81
2021/07/11 02:55:55;;;;;;;10.00;9.00;;;;;;;17.90;69.78;100401.17;126631;1088;114040;-80
2021/07/11 02:58:51;;;;;;;9.20;8.20;;;;;;;17.92;69.93;100408.05;126914;1089;104964;-80
2021/07/11 03:01:40;;;;;;;9.77;8.77;;;;;;;17.91;69.79;100406.36;126714;1089;114456;-81
2021/07/11 03:04:31;;;;;;;10.60;8.63;;;;;;;17.92;69.88;100410.69;126925;1090;102881;-81
2021/07/11 03:07:23;;;;;;;8.43;7.63;;;;;;;17.93;69.95;100408.91;126817;1090;114694;-80
2021/07/11 03:10:14;;;;;;;11.00;7.73;;;;;;;17.96;70.11;100412.23;126805;1089;103498;-81
2021/07/11 03:13:03;;;;;;;11.37;8.50;;;;;;;17.97;69.99;100405.16;126824;1089;102681;-80
2021/07/11 03:15:54;;;;;;;10.47;8.47;;;;;;;18.00;70.00;100419.02;126875;1089;102148;-81
2021/07/11 03:18:44;;;;;;;10.63;8.93;;;;;;;18.03;69.97;100413.55;126739;1089;103300;-81
2021/07/11 03:21:33;;;;;;;9.47;8.13;;;;;;;18.06;70.09;100418.64;126839;1089;114411;-80
2021/07/11 03:24:27;;;;;;;9.77;8.77;;;;;;;18.11;69.97;100420.98;126870;1089;102840;-81
2021/07/11 03:27:17;;;;;;;13.47;12.07;;;;;;;18.23;69.98;100419.41;126767;1090;113018;-81
2021/07/11 03:30:12;;;;;;;15.33;12.97;;;;;;;18.33;69.92;100417.91;126984;1089;103025;-81
2021/07/11 03:33:01;;;;;;;15.10;13.50;;;;;;;18.39;69.72;100421.02;126836;1088;114594;-81
2021/07/11 03:35:54;;;;;;;14.57;13.13;;;;;;;18.42;69.67;100419.97;126685;1090;103081;-81
2021/07/11 03:39:06;;;;;;;14.60;13.10;;;;;;;18.48;69.59;100416.94;126714;1088;114586;-81
2021/07/11 03:41:56;;;;;;;14.67;13.13;;;;;;;18.57;69.45;100423.46;126972;1088;101104;-80
2021/07/11 03:44:48;;;;;;;16.53;14.83;;;;;;;18.58;69.23;100426.00;126738;1090;114451;-80
2021/07/11 03:47:43;;;;;;;17.67;15.77;;;;;;;18.56;69.12;100419.97;126868;1090;102871;-81
2021/07/11 03:50:33;;;;;;;16.40;14.80;;;;;;;18.56;69.22;100430.53;126738;1088;113750;-81
2021/07/11 03:53:24;;;;;;;18.20;15.57;;;;;;;18.57;68.98;100426.95;126796;1090;102897;-81
2021/07/11 03:56:13;;;;;;;17.57;14.80;;;;;;;18.58;69.08;100427.80;126672;1089;114805;-81
2021/07/11 03:59:06;;;;;;;16.95;15.25;;;;;;;18.69;69.14;100420.94;127065;1090;102974;-81
2021/07/11 04:01:54;;;;;;;15.87;14.23;;;;;;;18.79;68.99;100428.27;126742;1090;114839;-80
2021/07/11 04:04:45;;;;;;;14.27;12.30;;;;;;;18.89;68.95;100432.04;126862;1089;103134;-81
2021/07/11 04:07:35;;;;;;;12.30;11.10;;;;;;;18.99;68.82;100435.77;126831;1089;114654;-81
2021/07/11 04:10:27;;;;;;;12.30;10.97;;;;;;;19.05;68.58;100424.83;126742;1090;102879;-81
2021/07/11 04:13:18;;;;;;;11.73;10.53;;;;;;;19.11;68.70;100427.06;126922;1089;102904;-81
2021/07/11 04:16:09;;;;;;;11.57;10.37;;;;;;;19.21;68.25;100427.30;126718;1089;114547;-81
2021/07/11 04:18:58;;;;;;;11.83;10.17;;;;;;;19.29;68.30;100414.45;126749;1089;103004;-81
2021/07/11 04:21:49;;;;;;;10.20;9.20;;;;;;;19.36;68.29;100421.02;126708;1090;113393;-81
2021/07/11 04:24:39;;;;;;;9.57;8.70;;;;;;;19.41;68.39;100421.58;126905;1089;103023;-81
2021/07/11 04:27:28;;;;;;;8.50;7.70;;;;;;;19.49;68.09;100423.70;126794;1088;114396;-80
2021/07/11 04:30:17;;;;;;;8.20;7.40;;;;;;;19.56;68.12;100419.72;126757;1090;102930;-81
2021/07/11 04:33:05;;;;;;;9.60;7.30;;;;;;;19.61;67.91;100422.94;126644;1090;115365;-81
2021/07/11 04:35:52;;;;;;;8.30;7.27;;;;;;;19.68;67.74;100426.01;126797;1090;102906;-81
2021/07/11 04:38:39;;;;;;;;;;;;;;;19.76;67.60;100416.62;126670;1090;114126;-81
2021/07/11 04:41:27;;;;;;;7.90;6.43;;;;;;;19.85;67.83;100429.22;126936;1090;102947;-81
2021/07/11 04:44:17;;;;;;;7.07;6.13;;;;;;;19.94;67.27;100426.91;126718;1090;114364;-81
2021/07/11 04:47:04;;;;;;;6.20;5.60;;;;;;;20.02;67.69;100427.22;126930;1090;102892;-81
2021/07/11 04:49:53;;;;;;;6.53;5.93;;;;;;;20.13;67.02;100425.55;126723;1090;114401;-81
2021/07/11 04:52:41;;;;;;;7.30;5.90;;;;;;;20.24;67.18;100422.13;126840;1089;103329;-81
2021/07/11 04:55:29;;;;;;;8.17;6.47;;;;;;;20.38;66.54;100419.38;126840;1090;103081;-81
2021/07/11 04:58:17;;;;;;;6.87;6.27;;;;;;;20.53;66.94;100421.94;126765;1090;113919;-81
2021/07/11 05:01:04;;;;;;;6.83;6.13;;;;;;;20.65;66.25;100423.73;126861;1089;103052;-81
2021/07/11 05:03:52;;;;;;;;;;;;;;;20.78;66.37;100433.33;126767;1089;114463;-81
2021/07/11 05:06:40;;;;;;;;;;;;;;;20.92;66.22;100428.84;126897;1089;102930;-81
2021/07/11 05:09:28;;;;;;;5.73;5.13;;;;;;;21.02;65.70;100437.84;126727;1090;102843;-81
2021/07/11 05:12:16;;;;;;;6.00;5.40;;;;;;;21.13;65.27;100433.42;126814;1090;102993;-81
2021/07/11 05:15:05;;;;;;;6.87;5.73;;;;;;;21.29;65.26;100427.88;126831;1089;114431;-81
2021/07/11 05:17:54;;;;;;;5.93;5.03;;;;;;;21.54;65.24;100431.36;126861;1090;102859;-81
2021/07/11 05:20:41;;;;;;;7.97;4.70;;;;;;;21.78;64.35;100431.34;126690;1089;114630;-81
2021/07/11 05:23:30;;;;;;;6.80;4.70;;;;;;;22.07;64.11;100429.97;126833;1088;102868;-81
2021/07/11 05:26:17;;;;;;;4.33;4.00;;;;;;;22.35;63.05;100427.84;126708;1090;114481;-81
2021/07/11 05:29:05;;;;;;;5.10;4.45;;;;;;;22.62;63.25;100430.97;126791;1089;103568;-81
2021/07/11 05:31:53;;;;;;;5.17;3.80;;;;;;;22.95;62.63;100431.93;126688;1090;113645;-82
2021/07/11 05:34:41;;;;;;;4.60;3.40;;;;;;;23.23;61.54;100420.74;126761;1090;103075;-81
2021/07/11 05:37:29;;;;;;;3.63;3.03;;;;;;;23.55;61.04;100419.91;126772;1089;102882;-81
2021/07/11 05:40:18;;;;;;;3.50;3.20;;;;;;;23.84;60.49;100420.97;126723;1090;114201;-81
2021/07/11 05:43:06;;;;;;;4.83;3.43;;;;;;;24.26;59.78;100434.28;126707;1090;102925;-80
2021/07/11 05:45:53;;;;;;;6.00;3.37;;;;;;;24.58;59.23;100416.33;126655;1090;113446;-81
2021/07/11 05:48:41;;;;;;;3.30;3.00;;;;;;;25.15;58.80;100414.00;126768;1090;102647;-82
2021/07/11 05:51:29;;;;;;;4.83;2.70;;;;;;;25.95;57.79;100413.70;126745;1088;113324;-81
2021/07/11 05:54:17;;;;;;;2.90;2.70;;;;;;;27.48;55.63;100407.75;126805;1089;102980;-82
2021/07/11 05:57:04;;;;;;;3.13;2.73;;;;;;;29.45;52.55;100405.89;126701;1090;114235;-81
2021/07/11 05:59:56;;;;;;;3.13;2.47;;;;;;;31.58;49.36;100399.58;126717;1090;102852;-81
2021/07/11 06:02:44;;;;;;;2.47;2.27;;;;;;;33.36;45.75;100395.81;126640;1090;114402;-82
2021/07/11 06:05:32;;;;;;;2.83;1.90;;;;;;;34.82;42.76;100400.34;126820;1089;102924;-82
2021/07/11 06:08:20;;;;;;;2.47;2.27;;;;;;;36.22;40.62;100391.30;126882;1090;114239;-80
2021/07/11 06:11:08;;;;;;;1.83;1.67;;;;;;;37.58;38.59;100399.23;126643;1090;102650;-79
2021/07/11 06:13:56;;;;;;;3.03;1.80;;;;;;;38.54;36.16;100387.79;126683;1089;102921;-79
2021/07/11 06:16:45;;;;;;;1.87;1.60;;;;;;;39.42;34.90;100388.03;126653;1090;102644;-80
2021/07/11 06:19:34;;;;;;;1.70;1.37;;;;;;;40.26;32.85;100387.85;126684;1090;102955;-80
2021/07/11 06:22:23;;;;;;;3.43;1.70;;;;;;;41.04;32.01;100387.25;126535;1090;113033;-80
2021/07/11 06:25:11;;;;;;;3.50;1.57;;;;;;;41.75;30.56;100383.02;126722;1089;103081;-80
2021/07/11 06:27:59;;;;;;;4.40;1.53;;;;;;;42.53;29.39;100379.17;126706;1090;113135;-80
2021/07/11 06:30:47;;;;;;;2.80;1.50;;;;;;;42.81;28.19;100380.86;126825;1089;103023;-81
2021/07/11 06:33:35;;;;;;;2.90;1.23;;;;;;;42.93;27.04;100377.17;126708;1089;113047;-80
2021/07/11 06:36:22;;;;;;;1.53;1.43;;;;;;;43.02;26.63;100386.58;126969;1090;103313;-80
2021/07/11 06:39:11;;;;;;;2.23;1.30;;;;;;;43.16;25.77;100376.01;126706;1090;114811;-81
2021/07/11 06:41:58;;;;;;;3.07;1.33;;;;;;;43.31;25.21;100377.00;126795;1090;102894;-80
2021/07/11 06:44:45;;;;;;;1.07;1.00;;;;;;;43.54;25.00;100377.72;126766;1090;113336;-81
2021/07/11 06:47:33;;;;;;;1.23;1.10;;;;;;;43.76;24.83;100370.20;126841;1090;101764;-80
2021/07/11 06:50:21;;;;;;;1.43;1.33;;;;;;;44.21;24.08;100364.16;126784;1090;102887;-80
2021/07/11 06:53:11;;;;;;;1.30;0.90;;;;;;;44.41;23.19;100368.08;126764;1090;102879;-81
2021/07/11 06:55:59;;;;;;;1.63;1.20;;;;;;;44.37;22.76;100362.30;126832;1090;103486;-80
2021/07/11 06:58:50;;;;;;;1.23;1.00;;;;;;;44.34;22.68;100378.48;126720;1090;114304;-80
2021/07/11 07:01:37;;;;;;;2.43;1.10;;;;;;;44.35;22.71;100366.38;126803;1089;100843;-80
2021/07/11 07:04:25;;;;;;;2.50;1.00;;;;;;;44.57;22.64;100372.56;126609;1090;114477;-80
2021/07/11 07:07:12;;;;;;;1.27;1.10;;;;;;;44.64;22.01;100375.86;126752;1090;102994;-80
2021/07/11 07:10:00;;;;;;;1.10;1.00;;;;;;;44.73;21.94;100376.17;126664;1090;113197;-80
2021/07/11 07:12:48;;;;;;;1.37;0.90;;;;;;;45.01;21.63;100370.17;126874;1090;102908;-80
2021/07/11 07:15:35;;;;;;;1.10;0.90;;;;;;;45.34;21.53;100371.59;126738;1090;114630;-80
2021/07/11 07:18:23;;;;;;;1.80;1.33;;;;;;;45.24;21.03;100368.80;126869;1090;102855;-80
2021/07/11 07:21:11;;;;;;;1.23;1.13;;;;;;;45.28;20.83;100369.95;126632;1090;114718;-81
2021/07/11 07:23:59;;;;;;;2.20;1.03;;;;;;;45.31;20.53;100369.40;126674;1090;103023;-81
2021/07/11 07:26:47;;;;;;;1.93;0.87;;;;;;;45.15;20.28;100364.95;126772;1090;102845;-81
2021/07/11 07:29:34;;;;;;;2.43;1.17;;;;;;;44.60;20.22;100358.26;126933;1089;102878;-81
2021/07/11 07:32:21;;;;;;;2.53;1.00;;;;;;;44.60;20.25;100361.84;126729;1090;102905;-81
2021/07/11 07:35:09;;;;;;;5.00;1.10;;;;;;;44.69;20.43;100355.78;126715;1089;114092;-81
2021/07/11 07:37:57;;;;;;;1.27;1.17;;;;;;;44.67;20.26;100358.81;126898;1090;102948;-81
2021/07/11 07:40:45;;;;;;;2.23;1.20;;;;;;;43.62;20.92;100375.29;126550;1090;113157;-80
2021/07/11 07:43:32;;;;;;;1.23;1.10;;;;;;;43.69;21.11;100370.44;126814;1090;103329;-81
2021/07/11 07:46:21;;;;;;;2.03;1.20;;;;;;;44.14;20.90;100370.97;126724;1089;114088;-81
2021/07/11 07:49:09;;;;;;;1.53;1.20;;;;;;;44.35;20.57;100374.63;126786;1089;102942;-81
2021/07/11 07:51:56;;;;;;;1.60;1.30;;;;;;;43.74;20.80;100380.63;126833;1088;114488;-81
2021/07/11 07:54:44;;;;;;;1.93;0.90;;;;;;;43.02;21.22;100376.43;126942;1088;102878;-81
2021/07/11 07:57:32;;;;;;;1.37;1.10;;;;;;;41.97;21.13;100369.35;126742;1088;114325;-81
2021/07/11 08:00:20;;;;;;;1.83;1.33;;;;;;;42.25;21.96;100368.39;126824;1089;102840;-81
2021/07/11 08:03:08;;;;;;;3.07;1.23;;;;;;;42.07;21.60;100375.02;126912;1090;101671;-81
2021/07/11 08:05:55;;;;;;;3.63;1.40;;;;;;;41.04;22.35;100377.14;126631;1090;112967;-81
2021/07/11 08:08:43;;;;;;;1.70;1.37;;;;;;;39.72;23.40;100382.53;126834;1088;102870;-80
2021/07/11 08:11:33;;;;;;;2.50;1.93;;;;;;;39.68;23.56;100372.30;126833;1090;113137;-80
2021/07/11 08:14:21;;;;;;;3.17;1.37;;;;;;;40.28;23.28;100378.34;126805;1088;102855;-80
2021/07/11 08:17:09;;;;;;;1.40;1.30;;;;;;;40.83;22.28;100368.81;126736;1089;114607;-80
2021/07/11 08:19:56;;;;;;;1.37;1.10;;;;;;;40.81;22.75;100371.77;126848;1090;102857;-80
2021/07/11 08:22:44;;;;;;;1.70;1.27;;;;;;;40.90;22.73;100373.05;126593;1088;113250;-80
2021/07/11 08:25:32;;;;;;;1.33;1.23;;;;;;;40.58;22.45;100371.84;126754;1089;103017;-80
2021/07/11 08:28:20;;;;;;;1.53;1.07;;;;;;;40.27;23.19;100370.38;126757;1090;113104;-81
2021/07/11 08:31:08;;;;;;;1.97;1.20;;;;;;;40.13;23.67;100378.84;127015;1088;103160;-80
2021/07/11 08:33:55;;;;;;;1.50;1.40;;;;;;;40.51;22.56;100380.20;126777;1090;113177;-80
2021/07/11 08:36:44;;;;;;;2.67;1.20;;;;;;;40.86;22.88;100376.53;126711;1090;100850;-80
2021/07/11 08:39:31;;;;;;;2.50;1.50;;;;;;;41.00;22.83;100375.16;126837;1089;101220;-80
2021/07/11 08:42:20;;;;;;;2.47;1.40;;;;;;;41.45;22.91;100377.85;126837;1090;101886;-80
2021/07/11 08:45:11;;;;;;;2.50;1.43;;;;;;;41.32;22.23;100370.83;126711;1090;102977;-79
2021/07/11 08:47:59;;;;;;;2.67;1.33;;;;;;;40.79;22.94;100373.92;126681;1090;114127;-80
2021/07/11 08:50:47;;;;;;;6.30;4.90;;;;;;;39.95;23.11;100372.66;127069;1089;102727;-80
2021/07/11 08:53:35;;;;;;;2.80;1.60;;;;;;;39.16;23.22;100374.83;126834;1089;114230;-80
2021/07/11 08:56:28;;;;;;;1.90;1.20;;;;;;;38.53;24.09;100372.50;126852;1088;103097;-80
2021/07/11 08:59:17;;;;;;;0.90;0.90;;;;;;;38.31;24.35;100372.16;126713;1090;114136;-80
2021/07/11 09:02:05;;;;;;;1.53;1.10;;;;;;;37.87;24.62;100365.05;126963;1090;103652;-80
2021/07/11 09:04:54;;;;;;;1.97;1.07;;;;;;;37.55;25.36;100372.47;126793;1089;114347;-80
2021/07/11 09:07:41;;;;;;;2.33;1.20;;;;;;;37.98;25.64;100375.21;126992;1089;102888;-80
2021/07/11 09:10:34;;;;;;;1.30;1.20;;;;;;;38.55;25.22;100367.66;126852;1089;113101;-80
2021/07/11 09:13:25;;;;;;;4.23;1.10;;;;;;;38.79;24.91;100364.02;126996;1088;102730;-81
2021/07/11 09:16:15;;;;;;;3.07;1.20;;;;;;;39.21;24.34;100355.86;126705;1088;114294;-81
2021/07/11 09:19:02;;;;;;;1.73;1.00;;;;;;;39.36;24.58;100353.52;126824;1090;102856;-81
2021/07/11 09:21:53;;;;;;;0.97;0.90;;;;;;;39.64;23.86;100349.27;126994;1090;102948;-80
2021/07/11 09:25:00;;;;;;;0.80;0.80;;;;;;;39.59;23.86;100347.27;126848;1089;113961;-80
2021/07/11 09:27:48;;;;;;;0.93;0.90;;;;;;;39.57;23.60;100344.77;126813;1089;102874;-80
2021/07/11 09:30:35;;;;;;;1.33;0.93;;;;;;;39.07;23.71;100349.73;126887;1090;113153;-80
2021/07/11 09:33:24;;;;;;;1.33;1.07;;;;;;;39.05;24.22;100340.13;126776;1090;102890;-80
2021/07/11 09:36:17;;;;;;;1.30;1.20;;;;;;;38.95;24.11;100346.97;126895;1089;114183;-80
2021/07/11 09:39:05;;;;;;;1.00;0.90;;;;;;;38.97;24.75;100341.31;127033;1090;102951;-80
2021/07/11 09:41:52;;;;;;;1.37;1.27;;;;;;;39.15;24.40;100343.16;126812;1088;114444;-80
2021/07/11 09:44:43;;;;;;;1.17;0.90;;;;;;;39.45;24.49;100346.63;126789;1090;101426;-80
2021/07/11 09:47:32;;;;;;;3.10;0.97;;;;;;;39.64;24.16;100333.72;126773;1089;114514;-81
2021/07/11 09:50:23;;;;;;;1.70;1.00;;;;;;;39.56;24.31;100337.66;126837;1090;102807;-81
2021/07/11 09:53:13;;;;;;;1.20;1.10;;;;;;;39.68;23.35;100334.08;126830;1089;113292;-81
2021/07/11 09:56:00;;;;;;;1.63;0.90;;;;;;;39.66;23.62;100336.22;126913;1089;102974;-80
2021/07/11 09:59:01;;;;;;;1.30;1.13;;;;;;;39.63;23.50;100336.70;126792;1088;114424;-80
2021/07/11 10:01:48;;;;;;;2.13;1.20;;;;;;;39.46;23.38;100340.09;126847;1090;102882;-80
2021/07/11 10:04:37;;;;;;;6.10;1.35;;;;;;;39.41;23.54;100334.53;126717;1088;114506;-79
2021/07/11 10:07:25;;;;;;;1.10;1.07;;;;;;;39.39;23.59;100331.20;126722;1090;102922;-80
2021/07/11 10:10:19;;;;;;;2.50;1.40;;;;;;;39.33;24.17;100334.89;126631;1089;103015;-80
2021/07/11 10:13:08;;;;;;;4.40;1.50;;;;;;;39.29;23.78;100336.41;126718;1090;102940;-80
2021/07/11 10:15:56;;;;;;;1.67;1.20;;;;;;;39.20;23.55;100333.20;126886;1089;102852;-80
2021/07/11 10:18:46;;;;;;;1.37;1.10;;;;;;;38.98;23.92;100330.17;126783;1089;114357;-79
2021/07/11 10:21:36;;;;;;;1.87;1.10;;;;;;;38.86;24.12;100334.75;126868;1088;102911;-79
2021/07/11 10:24:23;;;;;;;2.77;1.20;;;;;;;38.70;24.22;100332.67;126566;1089;114280;-79
2021/07/11 10:27:26;;;;;;;3.10;1.10;;;;;;;38.33;24.47;100338.17;127016;1090;102815;-80
2021/07/11 10:30:15;;;;;;;2.57;1.30;;;;;;;38.13;24.94;100332.10;126593;1089;113050;-79
2021/07/11 10:33:07;;;;;;;2.83;1.50;;;;;;;38.09;25.21;100330.91;126840;1090;102940;-79
2021/07/11 10:36:05;;;;;;;1.63;1.17;;;;;;;38.22;25.09;100330.75;126870;1090;114047;-80
2021/07/11 10:38:55;;;;;;;1.30;1.20;;;;;;;38.18;24.99;100328.69;126702;1089;102844;-81
2021/07/11 10:41:53;;;;;;;1.93;1.73;;;;;;;38.17;24.59;100332.47;126739;1090;114265;-79
2021/07/11 10:44:41;;;;;;;1.43;1.10;;;;;;;38.03;24.42;100324.45;126670;1088;102884;-79
2021/07/11 10:47:29;;;;;;;1.47;1.00;;;;;;;37.75;24.66;100327.70;126734;1089;114422;-79
2021/07/11 10:50:21;;;;;;;2.17;1.30;;;;;;;37.52;25.33;100324.73;126806;1088;102932;-80
2021/07/11 10:53:18;;;;;;;1.70;1.60;;;;;;;37.23;25.23;100333.56;126692;1089;114589;-80
2021/07/11 10:56:19;;;;;;;2.17;1.50;;;;;;;37.03;25.43;100330.99;126669;1088;102885;-79
2021/07/11 10:59:07;;;;;;;4.83;4.40;;;;;;;36.98;25.83;100336.23;126828;1090;114432;-79
2021/07/11 11:01:57;;;;;;;2.03;1.83;;;;;;;36.84;25.63;100327.36;126848;1089;102856;-79
2021/07/11 11:04:46;;;;;;;1.80;1.70;;;;;;;36.72;26.21;100319.02;126751;1089;102930;-79
2021/07/11 11:07:48;;;;;;;1.40;1.30;;;;;;;36.45;25.73;100321.06;126559;1089;113033;-79
2021/07/11 11:10:38;;;;;;;1.60;1.50;;;;;;;36.17;26.78;100321.35;126739;1089;102824;-81
2021/07/11 11:13:27;;;;;;;1.83;1.60;;;;;;;35.77;27.07;100315.17;126609;1090;113935;-81
2021/07/11 11:16:18;;;;;;;1.40;1.30;;;;;;;35.58;27.80;100306.03;126781;1090;102836;-79
2021/07/11 11:19:14;;;;;;;1.90;1.80;;;;;;;35.10;27.83;100313.51;126600;1090;114491;-79
2021/07/11 11:22:02;;;;;;;1.77;1.53;;;;;;;34.72;28.58;100315.92;126860;1090;103017;-80
2021/07/11 11:24:50;;;;;;;1.50;1.40;;;;;;;34.52;28.47;100316.70;126780;1090;113157;-80
2021/07/11 11:27:40;;;;;;;1.97;1.50;;;;;;;34.29;28.85;100304.48;126955;1090;102847;-80
2021/07/11 11:30:28;;;;;;;1.70;1.60;;;;;;;33.94;29.37;100315.38;126639;1090;113194;-80
2021/07/11 11:33:16;;;;;;;2.90;1.40;;;;;;;33.76;29.31;100315.02;126867;1089;102853;-79
2021/07/11 11:36:04;;;;;;;1.53;1.30;;;;;;;33.74;29.92;100314.36;126540;1089;114310;-80
2021/07/11 11:38:52;;;;;;;1.40;1.30;;;;;;;33.81;30.22;100312.55;126693;1089;102938;-80
2021/07/11 11:41:41;;;;;;;1.50;1.37;;;;;;;33.91;30.03;100305.77;126603;1090;114330;-79
2021/07/11 11:44:33;;;;;;;1.50;1.40;;;;;;;33.86;29.96;100305.53;126910;1089;102930;-80
2021/07/11 11:47:21;;;;;;;1.83;1.60;;;;;;;33.72;29.75;100305.61;126662;1090;114239;-80
2021/07/11 11:50:19;;;;;;;1.43;1.33;;;;;;;33.67;30.31;100302.67;126773;1090;102943;-80
2021/07/11 11:53:10;;;;;;;1.60;1.50;;;;;;;33.69;30.19;100306.02;126818;1090;103319;-80
2021/07/11 11:55:58;;;;;;;1.43;1.33;;;;;;;33.68;30.37;100302.47;126963;1090;102866;-80
2021/07/11 11:58:47;;;;;;;1.70;1.60;;;;;;;33.65;30.25;100300.17;126989;1089;101783;-80
2021/07/11 12:01:35;;;;;;;1.47;1.20;;;;;;;33.64;30.36;100296.63;126728;1090;114263;-79
2021/07/11 12:04:24;;;;;;;1.50;1.40;;;;;;;33.57;30.70;100300.30;126636;1090;102872;-79
2021/07/11 12:07:12;;;;;;;1.77;1.50;;;;;;;33.57;30.28;100293.03;126636;1090;114092;-81
2021/07/11 12:10:01;;;;;;;1.50;1.40;;;;;;;33.48;30.04;100290.69;126780;1089;102930;-79
2021/07/11 12:13:01;;;;;;;1.40;1.27;;;;;;;33.40;30.23;100293.55;126778;1088;114159;-79
2021/07/11 12:15:50;;;;;;;3.23;1.70;;;;;;;33.31;30.65;100287.41;126783;1089;102981;-81
2021/07/11 12:18:48;;;;;;;2.33;1.50;;;;;;;33.23;30.88;100291.10;126661;1088;114467;-80
2021/07/11 12:21:44;;;;;;;;;;;;;;;33.27;31.70;100284.27;126997;1089;102988;-81
2021/07/11 12:24:32;;;;;;;1.77;1.67;;;;;;;33.27;30.99;100276.16;126939;1088;102870;-80
2021/07/11 12:27:21;;;;;;;1.85;1.60;;;;;;;33.00;31.04;100277.78;126877;1088;102935;-79
2021/07/11 12:30:34;;;;;;;1.83;1.73;;;;;;;32.75;30.67;100269.22;126896;1089;113402;-80
2021/07/11 12:33:32;;;;;;;1.70;1.60;;;;;;;32.69;31.77;100269.16;126869;1089;102765;-79
2021/07/11 12:36:20;;;;;;;2.80;1.20;;;;;;;32.62;32.05;100262.84;126763;1088;114493;-79
2021/07/11 12:39:16;;;;;;;5.40;1.50;;;;;;;32.59;32.27;100268.63;126820;1089;102872;-79
2021/07/11 12:42:16;;;;;;;1.40;1.30;;;;;;;32.49;32.32;100258.13;126694;1089;113176;-80
2021/07/11 12:45:17;;;;;;;1.57;1.47;;;;;;;32.30;32.67;100256.88;126754;1089;102866;-80
2021/07/11 12:48:06;;;;;;;2.10;2.00;;;;;;;32.23;32.51;100252.41;126747;1090;114455;-80
2021/07/11 12:50:54;;;;;;;4.00;1.90;;;;;;;32.01;32.65;100262.31;126957;1089;102995;-81
2021/07/11 12:53:42;;;;;;;2.30;1.80;;;;;;;31.88;33.00;100264.83;126694;1089;113396;-80